Time;durP1;ratioP1;P1;durP2;ratioP2;P2;SDS_P1;SDS_P2;PMS_P1;PMS_P2;Temp;Humidity;BMP_temperature;BMP_pressure;BME280_temperature;BME280_humidity;BME280_pressure;Samples;Min_cycle;Max_cycle;Signal;HPM_P1;HPM_P2
2024/01/08 00:01:34;;;;;;;34.55;18.40;;;;;;;;;;4863245;29;20040;-90
2024/01/08 00:04:00;;;;;;;32.25;19.98;;;;;;;;;;4863548;29;20097;-91
2024/01/08 00:06:26;;;;;;;36.67;19.90;;;;;;;;;;4864283;29;20391;-90
2024/01/08 00:08:52;;;;;;;34.85;17.52;;;;;;;;;;4863465;29;20029;-89
2024/01/08 00:11:19;;;;;;;34.60;17.80;;;;;;;;;;4863606;29;20089;-90
2024/01/08 00:13:45;;;;;;;27.85;17.98;;;;;;;;;;4863056;29;20029;-91
2024/01/08 00:16:12;;;;;;;36.80;23.65;;;;;;;;;;4865510;29;20033;-88
2024/01/08 00:18:38;;;;;;;38.08;18.42;;;;;;;;;;4866837;29;20398;-89
2024/01/08 00:21:04;;;;;;;34.28;17.95;;;;;;;;;;4866616;29;20119;-90
2024/01/08 00:23:33;;;;;;;35.53;16.60;;;;;;;;;;4866961;29;20148;-90
2024/01/08 00:25:59;;;;;;;35.72;20.75;;;;;;;;;;4866850;29;20097;-91
2024/01/08 00:28:26;;;;;;;33.28;19.38;;;;;;;;;;4866963;29;20025;-89
2024/01/08 00:30:52;;;;;;;35.17;18.23;;;;;;;;;;4866824;29;20029;-91
2024/01/08 00:33:18;;;;;;;35.47;16.98;;;;;;;;;;4866660;29;20029;-88
2024/01/08 00:35:45;;;;;;;39.08;18.13;;;;;;;;;;4866021;29;20061;-89
2024/01/08 00:38:11;;;;;;;35.80;22.50;;;;;;;;;;4874221;29;20039;-90
2024/01/08 00:40:37;;;;;;;34.17;17.52;;;;;;;;;;4866205;29;20033;-89
2024/01/08 00:43:03;;;;;;;37.50;19.20;;;;;;;;;;4866109;29;20040;-93
2024/01/08 00:45:30;;;;;;;35.22;17.65;;;;;;;;;;4866305;29;20045;-93
2024/01/08 00:47:56;;;;;;;37.17;22.58;;;;;;;;;;4866373;29;20102;-92
2024/01/08 00:50:23;;;;;;;33.05;17.55;;;;;;;;;;4875234;29;20131;-93
2024/01/08 00:52:55;;;;;;;35.42;17.80;;;;;;;;;;4884680;29;20036;-94
2024/01/08 00:55:24;;;;;;;33.67;16.27;;;;;;;;;;4885060;29;20036;-93
2024/01/08 00:57:54;;;;;;;33.78;18.35;;;;;;;;;;4884528;29;20474;-93
2024/01/08 01:00:23;;;;;;;38.03;18.23;;;;;;;;;;4884895;29;20036;-93
2024/01/08 01:02:50;;;;;;;36.45;18.48;;;;;;;;;;4881405;29;20044;-93
2024/01/08 01:05:16;;;;;;;33.58;18.95;;;;;;;;;;4865926;29;20092;-93
2024/01/08 01:07:45;;;;;;;30.88;17.33;;;;;;;;;;4865802;29;20124;-93
2024/01/08 01:10:14;;;;;;;32.53;18.85;;;;;;;;;;4866380;29;20119;-91
2024/01/08 01:12:46;;;;;;;33.15;17.67;;;;;;;;;;4865735;29;20028;-92
2024/01/08 01:15:12;;;;;;;34.22;22.58;;;;;;;;;;4866066;29;20025;-94
2024/01/08 01:17:42;;;;;;;33.28;19.77;;;;;;;;;;4866141;29;20179;-92
2024/01/08 01:20:08;;;;;;;31.58;17.23;;;;;;;;;;4869746;29;20035;-93
2024/01/08 01:22:34;;;;;;;32.30;16.38;;;;;;;;;;4885243;29;20503;-92
2024/01/08 01:25:01;;;;;;;33.58;16.88;;;;;;;;;;4875286;29;20051;-93
2024/01/08 01:27:27;;;;;;;33.15;18.75;;;;;;;;;;4866106;29;20029;-94
2024/01/08 01:29:53;;;;;;;35.00;19.30;;;;;;;;;;4869166;29;20535;-93
2024/01/08 01:32:26;;;;;;;35.38;19.88;;;;;;;;;;4912792;29;20045;-93
2024/01/08 01:34:52;;;;;;;34.38;17.92;;;;;;;;;;4881490;29;20053;-93
2024/01/08 01:37:18;;;;;;;34.00;19.42;;;;;;;;;;4865422;29;20037;-93
2024/01/08 01:39:45;;;;;;;33.22;17.10;;;;;;;;;;4865412;29;20116;-93
2024/01/08 01:42:11;;;;;;;35.65;18.65;;;;;;;;;;4865608;29;20093;-92
2024/01/08 01:44:37;;;;;;;31.77;17.13;;;;;;;;;;4882031;29;20022;-92
2024/01/08 01:47:03;;;;;;;33.15;16.98;;;;;;;;;;4865486;29;20119;-93
2024/01/08 01:49:30;;;;;;;38.20;24.35;;;;;;;;;;4865362;29;20391;-92
2024/01/08 01:51:59;;;;;;;33.50;17.95;;;;;;;;;;4865450;29;20494;-94
2024/01/08 01:54:28;;;;;;;30.10;16.70;;;;;;;;;;4864956;29;20035;-92
2024/01/08 01:57:02;;;;;;;31.05;16.00;;;;;;;;;;4865672;29;20510;-92
2024/01/08 01:59:35;;;;;;;33.78;17.13;;;;;;;;;;4865072;29;20025;-93
2024/01/08 02:02:28;;;;;;;33.17;20.58;;;;;;;;;;4864806;29;20077;-93
2024/01/08 02:04:58;;;;;;;30.90;15.33;;;;;;;;;;4865014;29;20127;-92
2024/01/08 02:07:25;;;;;;;38.67;20.48;;;;;;;;;;4865116;29;20069;-91
2024/01/08 02:09:54;;;;;;;30.08;18.20;;;;;;;;;;4876137;29;20032;-91
2024/01/08 02:12:23;;;;;;;36.30;19.13;;;;;;;;;;4868632;29;20040;-92
2024/01/08 02:14:50;;;;;;;36.60;16.83;;;;;;;;;;4865231;29;20037;-92
2024/01/08 02:17:16;;;;;;;34.40;16.00;;;;;;;;;;4864699;29;20132;-92
2024/01/08 02:19:42;;;;;;;35.25;17.05;;;;;;;;;;4864904;29;20033;-93
2024/01/08 02:22:08;;;;;;;32.53;20.42;;;;;;;;;;4875178;29;20041;-94
2024/01/08 02:24:36;;;;;;;34.00;17.77;;;;;;;;;;4877196;29;20025;-93
2024/01/08 02:27:05;;;;;;;39.00;18.42;;;;;;;;;;4881268;29;20474;-93
2024/01/08 02:29:35;;;;;;;28.25;22.50;;;;;;;;;;4882940;29;20099;-92
2024/01/08 02:32:01;;;;;;;34.15;21.77;;;;;;;;;;4882757;29;20024;-93
2024/01/08 02:34:34;;;;;;;33.75;18.58;;;;;;;;;;4883037;29;20063;-92
2024/01/08 02:37:00;;;;;;;32.20;18.95;;;;;;;;;;4883213;29;20032;-94
2024/01/08 02:39:29;;;;;;;32.28;17.25;;;;;;;;;;4882300;29;20029;-93
2024/01/08 02:41:55;;;;;;;35.50;17.35;;;;;;;;;;4883060;29;20029;-93
2024/01/08 02:44:24;;;;;;;35.50;18.45;;;;;;;;;;4883052;29;20032;-93
2024/01/08 02:46:51;;;;;;;33.03;18.00;;;;;;;;;;4882827;29;20036;-94
2024/01/08 02:49:20;;;;;;;32.97;18.38;;;;;;;;;;4882634;29;20025;-93
2024/01/08 02:51:46;;;;;;;34.17;17.42;;;;;;;;;;4877373;29;20036;-93
2024/01/08 02:54:12;;;;;;;33.33;17.23;;;;;;;;;;4871344;29;20127;-92
2024/01/08 02:56:44;;;;;;;33.40;16.92;;;;;;;;;;4879350;29;20472;-93
2024/01/08 02:59:10;;;;;;;34.13;16.92;;;;;;;;;;4864247;29;20045;-94
2024/01/08 03:01:38;;;;;;;31.80;19.00;;;;;;;;;;4875251;29;20037;-94
2024/01/08 03:04:04;;;;;;;33.05;17.42;;;;;;;;;;4864748;29;20033;-92
2024/01/08 03:06:31;;;;;;;30.38;20.85;;;;;;;;;;4882153;29;20390;-93
2024/01/08 03:09:00;;;;;;;32.70;17.88;;;;;;;;;;4883077;29;20040;-91
2024/01/08 03:11:29;;;;;;;34.35;22.92;;;;;;;;;;4894771;29;20029;-89
2024/01/08 03:14:05;;;;;;;34.03;17.77;;;;;;;;;;4898723;29;20048;-91
2024/01/08 03:16:31;;;;;;;37.53;18.42;;;;;;;;;;4863583;29;20067;-93
2024/01/08 03:18:59;;;;;;;34.13;22.05;;;;;;;;;;4863799;29;20033;-91
2024/01/08 03:21:29;;;;;;;34.20;17.40;;;;;;;;;;4871113;29;20390;-93
2024/01/08 03:23:55;;;;;;;34.58;17.52;;;;;;;;;;4882288;29;20028;-92
2024/01/08 03:26:33;;;;;;;32.80;17.48;;;;;;;;;;4882270;29;20158;-92
2024/01/08 03:29:03;;;;;;;34.03;16.17;;;;;;;;;;4882064;29;20029;-93
2024/01/08 03:31:29;;;;;;;32.83;15.75;;;;;;;;;;4882054;29;20032;-94
2024/01/08 03:33:58;;;;;;;34.58;17.67;;;;;;;;;;4872426;29;20467;-92
2024/01/08 03:36:25;;;;;;;37.72;21.75;;;;;;;;;;4863892;29;20068;-93
2024/01/08 03:38:54;;;;;;;35.33;17.50;;;;;;;;;;4864452;29;20089;-93
2024/01/08 03:41:23;;;;;;;34.20;16.92;;;;;;;;;;4881925;29;20032;-92
2024/01/08 03:43:49;;;;;;;31.35;16.98;;;;;;;;;;4882187;29;20033;-93
2024/01/08 03:46:16;;;;;;;33.65;16.13;;;;;;;;;;4871114;29;20090;-92
2024/01/08 03:48:45;;;;;;;30.17;16.92;;;;;;;;;;4864161;29;20037;-94
2024/01/08 03:51:12;;;;;;;30.65;19.45;;;;;;;;;;4866311;29;20032;-92
2024/01/08 03:53:56;;;;;;;37.35;18.30;;;;;;;;;;4867443;29;20120;-91
2024/01/08 03:56:23;;;;;;;33.35;16.35;;;;;;;;;;4867133;29;20036;-92
2024/01/08 03:58:52;;;;;;;38.60;19.30;;;;;;;;;;4867291;29;20072;-94
2024/01/08 04:01:18;;;;;;;31.13;22.70;;;;;;;;;;4866883;29;20037;-92
2024/01/08 04:03:44;;;;;;;39.08;18.98;;;;;;;;;;4867500;29;20053;-92
2024/01/08 04:06:13;;;;;;;36.00;16.27;;;;;;;;;;4867010;29;20048;-93
2024/01/08 04:08:42;;;;;;;36.10;20.33;;;;;;;;;;4863883;29;20032;-91
2024/01/08 04:11:11;;;;;;;38.75;16.83;;;;;;;;;;4863822;29;20065;-93
2024/01/08 04:13:38;;;;;;;34.17;19.80;;;;;;;;;;4864007;29;20029;-93
2024/01/08 04:16:08;;;;;;;34.95;20.13;;;;;;;;;;4863726;29;20120;-92
2024/01/08 04:18:34;;;;;;;35.97;15.05;;;;;;;;;;4897712;29;20028;-93
2024/01/08 04:21:03;;;;;;;36.63;19.85;;;;;;;;;;4885445;29;20033;-92
2024/01/08 04:23:29;;;;;;;34.72;16.95;;;;;;;;;;4885659;29;20025;-92
2024/01/08 04:26:01;;;;;;;35.95;16.60;;;;;;;;;;4885403;29;20040;-94
2024/01/08 04:28:27;;;;;;;36.20;17.05;;;;;;;;;;4887648;29;20021;-93
2024/01/08 04:30:53;;;;;;;34.67;16.65;;;;;;;;;;4884196;29;20032;-93
2024/01/08 04:33:25;;;;;;;32.30;18.48;;;;;;;;;;4885963;29;20039;-95
2024/01/08 04:35:52;;;;;;;33.70;19.75;;;;;;;;;;4885378;29;20056;-92
2024/01/08 04:38:18;;;;;;;37.28;18.45;;;;;;;;;;4885816;29;20092;-93
2024/01/08 04:40:47;;;;;;;33.80;17.55;;;;;;;;;;4869844;29;20041;-92
2024/01/08 04:43:13;;;;;;;35.95;17.20;;;;;;;;;;4848932;29;20061;-92
2024/01/08 04:45:45;;;;;;;36.25;20.88;;;;;;;;;;4864001;29;20076;-94
2024/01/08 04:48:14;;;;;;;33.15;17.85;;;;;;;;;;4863635;29;20064;-93
2024/01/08 04:50:40;;;;;;;38.65;18.50;;;;;;;;;;4902914;29;20017;-92
2024/01/08 04:53:06;;;;;;;36.28;18.95;;;;;;;;;;4906813;29;20024;-92
2024/01/08 04:55:33;;;;;;;35.58;18.92;;;;;;;;;;4887668;29;20056;-92
2024/01/08 04:57:59;;;;;;;39.25;18.50;;;;;;;;;;4884879;29;20032;-92
2024/01/08 05:00:25;;;;;;;36.53;18.92;;;;;;;;;;4884594;29;20032;-91
2024/01/08 05:02:51;;;;;;;37.17;17.80;;;;;;;;;;4883610;29;20037;-92
2024/01/08 05:05:17;;;;;;;37.83;19.38;;;;;;;;;;4884446;29;20036;-93
2024/01/08 05:07:43;;;;;;;30.50;17.10;;;;;;;;;;4884384;29;20033;-92
2024/01/08 05:10:10;;;;;;;34.25;17.48;;;;;;;;;;4884356;29;20028;-92
2024/01/08 05:12:36;;;;;;;33.47;18.83;;;;;;;;;;4884416;29;20543;-90
2024/01/08 05:15:02;;;;;;;38.38;18.90;;;;;;;;;;4884257;29;20036;-91
2024/01/08 05:17:28;;;;;;;36.10;17.20;;;;;;;;;;4884235;29;20029;-93
2024/01/08 05:20:09;;;;;;;38.10;17.20;;;;;;;;;;4884488;29;20036;-93
2024/01/08 05:22:39;;;;;;;37.15;19.50;;;;;;;;;;4884087;29;20538;-91
2024/01/08 05:25:05;;;;;;;30.65;17.75;;;;;;;;;;4883729;29;20033;-93
2024/01/08 05:27:31;;;;;;;34.35;17.00;;;;;;;;;;4876253;29;20128;-93
2024/01/08 05:29:57;;;;;;;35.03;17.50;;;;;;;;;;4865624;29;20036;-94
2024/01/08 05:32:29;;;;;;;41.45;18.50;;;;;;;;;;4865642;29;20097;-93
2024/01/08 05:34:55;;;;;;;35.42;18.55;;;;;;;;;;4865062;29;20049;-92
2024/01/08 05:37:25;;;;;;;39.92;18.52;;;;;;;;;;4865059;29;20087;-93
2024/01/08 05:39:54;;;;;;;38.92;20.50;;;;;;;;;;4865657;29;20029;-93
2024/01/08 05:42:23;;;;;;;36.35;18.67;;;;;;;;;;4865207;29;20033;-93
2024/01/08 05:44:50;;;;;;;39.35;19.02;;;;;;;;;;4864947;29;20064;-89
2024/01/08 05:47:16;;;;;;;35.88;23.05;;;;;;;;;;4865010;29;20033;-92
2024/01/08 05:49:43;;;;;;;33.00;17.30;;;;;;;;;;4879210;29;20060;-92
2024/01/08 05:52:09;;;;;;;39.13;19.67;;;;;;;;;;4884094;29;20029;-91
2024/01/08 05:54:37;;;;;;;39.05;18.60;;;;;;;;;;4883843;29;20035;-93
2024/01/08 05:57:09;;;;;;;42.75;29.67;;;;;;;;;;4883906;29;20063;-92
2024/01/08 05:59:38;;;;;;;43.47;25.83;;;;;;;;;;4887516;29;20490;-93
2024/01/08 06:02:09;;;;;;;41.08;23.17;;;;;;;;;;4885536;29;20032;-91
2024/01/08 06:04:38;;;;;;;36.38;19.63;;;;;;;;;;4885542;29;20083;-92
2024/01/08 06:07:05;;;;;;;38.92;20.88;;;;;;;;;;4885683;29;20041;-92
2024/01/08 06:09:37;;;;;;;37.60;19.67;;;;;;;;;;4900715;29;20052;-93
2024/01/08 06:12:03;;;;;;;35.53;19.67;;;;;;;;;;4884864;29;20029;-92
2024/01/08 06:14:41;;;;;;;36.63;20.08;;;;;;;;;;4884624;29;20039;-91
2024/01/08 06:17:13;;;;;;;38.78;21.40;;;;;;;;;;4884339;29;20033;-91
2024/01/08 06:19:40;;;;;;;34.40;20.73;;;;;;;;;;4886361;29;20054;-92
2024/01/08 06:25:09;;;;;;;38.03;18.05;;;;;;;;;;4901725;29;20125;-94
2024/01/08 06:27:36;;;;;;;44.63;21.10;;;;;;;;;;4885787;29;20144;-93
2024/01/08 06:30:09;;;;;;;39.33;21.80;;;;;;;;;;4891051;29;20095;-92
2024/01/08 06:32:38;;;;;;;38.42;18.40;;;;;;;;;;4903258;29;20033;-94
2024/01/08 06:35:08;;;;;;;37.58;19.23;;;;;;;;;;4890839;29;20068;-93
2024/01/08 06:37:38;;;;;;;32.80;18.30;;;;;;;;;;4883004;29;20419;-94
2024/01/08 06:40:04;;;;;;;39.00;19.98;;;;;;;;;;4867827;29;20036;-93
2024/01/08 06:42:36;;;;;;;35.13;20.33;;;;;;;;;;4869713;29;20037;-91
2024/01/08 06:45:02;;;;;;;34.42;17.88;;;;;;;;;;4863980;29;20069;-92
2024/01/08 06:47:31;;;;;;;35.78;18.55;;;;;;;;;;4882896;29;20048;-92
2024/01/08 06:49:58;;;;;;;37.63;21.20;;;;;;;;;;4882909;29;20040;-93
2024/01/08 06:52:27;;;;;;;40.30;20.15;;;;;;;;;;4883082;29;20602;-93
2024/01/08 06:54:56;;;;;;;36.33;21.05;;;;;;;;;;4876381;29;20029;-92
2024/01/08 06:57:28;;;;;;;38.30;18.25;;;;;;;;;;4865432;29;20550;-93
2024/01/08 07:00:01;;;;;;;34.35;19.60;;;;;;;;;;4864606;29;20033;-94
2024/01/08 07:02:40;;;;;;;35.38;18.83;;;;;;;;;;4864609;29;20057;-93
2024/01/08 07:05:16;;;;;;;36.22;19.70;;;;;;;;;;4871509;29;20066;-91
2024/01/08 07:07:48;;;;;;;37.80;21.25;;;;;;;;;;4888594;29;20041;-92
2024/01/08 07:10:14;;;;;;;40.13;19.80;;;;;;;;;;4875347;29;20538;-92
2024/01/08 07:12:40;;;;;;;35.65;18.83;;;;;;;;;;4864413;29;20044;-93
2024/01/08 07:15:32;;;;;;;39.63;19.38;;;;;;;;;;4864542;29;20033;-94
2024/01/08 07:17:58;;;;;;;40.35;19.38;;;;;;;;;;4864222;29;20052;-92
2024/01/08 07:20:25;;;;;;;35.13;21.95;;;;;;;;;;4879730;29;20029;-92
2024/01/08 07:23:06;;;;;;;38.95;19.15;;;;;;;;;;4882277;29;20052;-93
2024/01/08 07:25:39;;;;;;;38.20;20.60;;;;;;;;;;4884332;29;20048;-93
2024/01/08 07:28:11;;;;;;;42.10;18.37;;;;;;;;;;4874723;29;20029;-93
2024/01/08 07:30:43;;;;;;;34.30;18.07;;;;;;;;;;4867636;29;20032;-93
2024/01/08 07:33:13;;;;;;;40.30;19.00;;;;;;;;;;4868120;29;20120;-93
2024/01/08 07:35:39;;;;;;;38.22;18.45;;;;;;;;;;4867987;29;20519;-92
2024/01/08 07:38:05;;;;;;;40.10;19.48;;;;;;;;;;4863444;29;20033;-94
2024/01/08 07:40:32;;;;;;;34.60;17.15;;;;;;;;;;4888356;29;20035;-94
2024/01/08 07:42:58;;;;;;;35.50;20.27;;;;;;;;;;4886686;29;20456;-94
2024/01/08 07:45:34;;;;;;;35.72;16.98;;;;;;;;;;4885954;29;20116;-92
2024/01/08 07:48:01;;;;;;;37.63;21.13;;;;;;;;;;4869192;29;20040;-93
2024/01/08 07:50:41;;;;;;;36.40;18.90;;;;;;;;;;4867141;29;20029;-92
2024/01/08 07:53:14;;;;;;;37.17;22.15;;;;;;;;;;4868459;29;20525;-92
2024/01/08 07:55:43;;;;;;;36.80;19.45;;;;;;;;;;4881063;29;20025;-94
2024/01/08 07:58:14;;;;;;;37.65;20.33;;;;;;;;;;4867163;29;20033;-92
2024/01/08 08:03:27;;;;;;;35.63;19.48;;;;;;;;;;5015970;23;20067;-94
2024/01/08 08:05:58;;;;;;;39.55;21.42;;;;;;;;;;4868390;29;20037;-92
2024/01/08 08:08:24;;;;;;;38.55;20.23;;;;;;;;;;4870135;29;20025;-95
2024/01/08 08:16:02;;;;;;;35.25;21.23;;;;;;;;;;5000604;23;20041;-94
2024/01/08 08:21:21;;;;;;;35.38;18.40;;;;;;;;;;5137897;23;20072;-92
2024/01/08 08:23:47;;;;;;;34.90;17.77;;;;;;;;;;4867126;29;20123;-92
2024/01/08 08:26:13;;;;;;;37.78;19.95;;;;;;;;;;4866786;29;20044;-92
2024/01/08 08:28:40;;;;;;;36.85;18.75;;;;;;;;;;4866594;29;20479;-92
2024/01/08 08:31:06;;;;;;;36.00;17.85;;;;;;;;;;4867058;29;20037;-91
2024/01/08 08:33:32;;;;;;;34.85;19.38;;;;;;;;;;4866363;29;20033;-93
2024/01/08 08:35:58;;;;;;;35.78;19.40;;;;;;;;;;4866316;29;20061;-92
2024/01/08 08:38:24;;;;;;;34.33;18.20;;;;;;;;;;4871764;29;20036;-91
2024/01/08 08:40:54;;;;;;;38.63;18.02;;;;;;;;;;4876738;29;20024;-92
2024/01/08 08:43:20;;;;;;;35.17;17.15;;;;;;;;;;4885116;29;20470;-93
2024/01/08 08:45:49;;;;;;;35.28;19.80;;;;;;;;;;4884704;29;20040;-93
2024/01/08 08:48:22;;;;;;;36.03;17.52;;;;;;;;;;4869660;29;20032;-93
2024/01/08 08:50:48;;;;;;;33.15;19.38;;;;;;;;;;4879662;29;20053;-94
2024/01/08 08:53:18;;;;;;;43.50;21.00;;;;;;;;;;4870608;29;20475;-93
2024/01/08 08:55:45;;;;;;;42.53;21.05;;;;;;;;;;4866290;29;20021;-94
2024/01/08 08:58:15;;;;;;;35.38;18.88;;;;;;;;;;4882933;29;20486;-93
2024/01/08 09:00:45;;;;;;;42.08;18.17;;;;;;;;;;4884330;29;20084;-93
2024/01/08 09:03:14;;;;;;;37.03;19.58;;;;;;;;;;4876184;29;20048;-93
2024/01/08 09:05:40;;;;;;;40.85;20.60;;;;;;;;;;4866140;29;20058;-94
2024/01/08 09:08:09;;;;;;;47.50;26.00;;;;;;;;;;4866237;29;20043;-94
2024/01/08 09:10:39;;;;;;;36.70;20.40;;;;;;;;;;4866474;29;20057;-94
2024/01/08 09:13:05;;;;;;;40.05;22.80;;;;;;;;;;4866455;29;20025;-93
2024/01/08 09:15:34;;;;;;;41.20;20.33;;;;;;;;;;4867744;29;20120;-92
2024/01/08 09:18:01;;;;;;;48.58;23.27;;;;;;;;;;4884477;29;20028;-92
2024/01/08 09:20:27;;;;;;;47.10;22.92;;;;;;;;;;4883942;29;20051;-93
2024/01/08 09:22:53;;;;;;;36.58;19.52;;;;;;;;;;4885362;29;20032;-93
2024/01/08 09:25:22;;;;;;;44.08;21.90;;;;;;;;;;4884879;29;20383;-93
2024/01/08 09:27:48;;;;;;;36.50;19.58;;;;;;;;;;4885142;29;20088;-93
2024/01/08 09:30:15;;;;;;;36.53;19.10;;;;;;;;;;4884669;29;20089;-95
2024/01/08 09:32:41;;;;;;;32.53;18.08;;;;;;;;;;4884122;29;20033;-93
2024/01/08 09:35:07;;;;;;;35.15;20.05;;;;;;;;;;4883966;29;20036;-94
2024/01/08 09:37:36;;;;;;;38.20;19.15;;;;;;;;;;4877401;29;20050;-94
2024/01/08 09:40:21;;;;;;;33.90;18.65;;;;;;;;;;4884398;29;20111;-95
2024/01/08 09:42:51;;;;;;;39.97;20.70;;;;;;;;;;4884990;29;20482;-93
2024/01/08 09:45:25;;;;;;;32.50;18.10;;;;;;;;;;4884888;29;20092;-92
2024/01/08 09:47:59;;;;;;;36.20;19.05;;;;;;;;;;4884341;29;20035;-93
2024/01/08 09:50:26;;;;;;;31.92;18.95;;;;;;;;;;4884437;29;20076;-94
2024/01/08 09:52:54;;;;;;;39.78;19.92;;;;;;;;;;4884004;29;20031;-94
2024/01/08 09:55:29;;;;;;;41.53;22.10;;;;;;;;;;4880071;29;20025;-94
2024/01/08 09:57:58;;;;;;;36.55;18.48;;;;;;;;;;4903926;29;20036;-92
2024/01/08 10:00:27;;;;;;;33.58;20.00;;;;;;;;;;4888927;29;20036;-94
2024/01/08 10:02:59;;;;;;;43.42;20.67;;;;;;;;;;4885918;29;20056;-93
2024/01/08 10:05:36;;;;;;;37.33;18.10;;;;;;;;;;4884338;29;20036;-93
2024/01/08 10:08:02;;;;;;;37.65;19.23;;;;;;;;;;4883874;29;20042;-93
2024/01/08 10:10:29;;;;;;;32.25;17.10;;;;;;;;;;4883732;29;20037;-93
2024/01/08 10:13:02;;;;;;;39.63;25.98;;;;;;;;;;4884184;29;20035;-92
2024/01/08 10:34:49;;;;;;;45.53;26.73;;;;;;;;;;4853597;29;20526;-92
2024/01/08 10:37:38;;;;;;;38.85;20.20;;;;;;;;;;4883575;23;20060;-95
2024/01/08 10:40:25;;;;;;;41.83;23.23;;;;;;;;;;4864098;29;20135;-93
2024/01/08 10:43:10;;;;;;;46.75;25.10;;;;;;;;;;4872574;29;20040;-94
2024/01/08 10:45:42;;;;;;;40.83;19.25;;;;;;;;;;4882463;29;20406;-95
2024/01/08 10:48:30;;;;;;;46.42;23.65;;;;;;;;;;4883813;29;20060;-96
2024/01/08 10:51:35;;;;;;;42.00;20.25;;;;;;;;;;4882749;29;20035;-93
2024/01/08 10:54:23;;;;;;;43.55;20.08;;;;;;;;;;4882739;29;20044;-92
2024/01/08 11:04:45;;;;;;;37.97;18.77;;;;;;;;;;5936969;23;20024;-92
2024/01/08 11:10:35;;;;;;;41.85;18.65;;;;;;;;;;4863719;29;20032;-94
2024/01/08 11:19:40;;;;;;;38.90;18.40;;;;;;;;;;4879224;29;20142;-93
2024/01/08 11:28:14;;;;;;;38.42;18.17;;;;;;;;;;5023741;23;20113;-95
2024/01/08 11:48:47;;;;;;;37.45;20.27;;;;;;;;;;4805237;29;20099;-94
2024/01/08 11:54:18;;;;;;;37.85;21.75;;;;;;;;;;4898895;29;20096;-93
2024/01/08 12:14:10;;;;;;;37.53;24.33;;;;;;;;;;4961561;23;20132;-93
2024/01/08 12:26:11;;;;;;;39.85;27.10;;;;;;;;;;4887016;29;20059;-93
2024/01/08 12:31:50;;;;;;;38.15;22.15;;;;;;;;;;5049777;23;20096;-93
2024/01/08 12:43:34;;;;;;;41.92;29.13;;;;;;;;;;4883386;29;20069;-94
2024/01/08 12:46:42;;;;;;;39.17;24.92;;;;;;;;;;4869371;29;20041;-92
2024/01/08 12:49:14;;;;;;;43.65;29.80;;;;;;;;;;4885512;29;20032;-93
2024/01/08 12:51:40;;;;;;;45.08;24.65;;;;;;;;;;4879365;29;20061;-93
2024/01/08 12:54:09;;;;;;;45.95;25.17;;;;;;;;;;4868096;29;20128;-92
2024/01/08 12:56:39;;;;;;;45.08;28.27;;;;;;;;;;4866307;29;20501;-94
2024/01/08 12:59:11;;;;;;;39.42;22.58;;;;;;;;;;4882741;29;20043;-95
2024/01/08 13:01:46;;;;;;;38.25;20.63;;;;;;;;;;4873145;29;20037;-92
2024/01/08 13:04:42;;;;;;;43.63;27.33;;;;;;;;;;4868575;29;20032;-96
2024/01/08 13:07:08;;;;;;;41.30;27.08;;;;;;;;;;4869084;29;20059;-95
2024/01/08 13:09:46;;;;;;;36.58;22.70;;;;;;;;;;4852535;29;20073;-93
2024/01/08 13:12:19;;;;;;;42.28;23.17;;;;;;;;;;4882842;29;20138;-92
2024/01/08 13:14:45;;;;;;;39.50;24.58;;;;;;;;;;4866178;29;20036;-95
2024/01/08 13:17:21;;;;;;;43.38;23.40;;;;;;;;;;4889560;29;20039;-93
2024/01/08 13:22:41;;;;;;;38.38;22.25;;;;;;;;;;4986503;23;20093;-93
2024/01/08 13:25:16;;;;;;;42.75;32.25;;;;;;;;;;4872744;29;20033;-94
2024/01/08 13:27:54;;;;;;;38.08;22.35;;;;;;;;;;4869727;29;20041;-95
2024/01/08 13:30:24;;;;;;;41.55;28.02;;;;;;;;;;4885491;29;20111;-94
2024/01/08 13:32:53;;;;;;;40.40;27.85;;;;;;;;;;4886773;29;20032;-95
2024/01/08 13:35:22;;;;;;;44.40;28.98;;;;;;;;;;4887419;29;20064;-95
2024/01/08 13:37:51;;;;;;;44.03;25.00;;;;;;;;;;4891798;29;20029;-93
2024/01/08 13:43:25;;;;;;;42.10;30.83;;;;;;;;;;4901064;29;20034;-94
2024/01/08 14:01:04;;;;;;;47.03;36.65;;;;;;;;;;5302335;23;20064;-96
2024/01/08 14:08:41;;;;;;;43.72;29.95;;;;;;;;;;4890129;24;20053;-93
2024/01/08 14:17:24;;;;;;;48.22;36.55;;;;;;;;;;4881161;29;20577;-93
2024/01/08 14:19:53;;;;;;;37.95;24.20;;;;;;;;;;4865083;29;20033;-93
2024/01/08 14:25:17;;;;;;;;;;;;;;;;;;;;;
2024/01/08 14:27:50;;;;;;;47.72;35.83;;;;;;;;;;4881231;29;20045;-91
2024/01/08 14:30:21;;;;;;;56.50;48.65;;;;;;;;;;4860488;29;20038;-93
2024/01/08 14:32:50;;;;;;;44.45;35.47;;;;;;;;;;4870217;29;20194;-93
2024/01/08 14:52:41;;;;;;;41.72;28.98;;;;;;;;;;4881231;29;20039;-92
2024/01/08 15:01:24;;;;;;;56.72;43.85;;;;;;;;;;4881429;29;20077;-93
2024/01/08 15:06:25;;;;;;;43.20;27.58;;;;;;;;;;4920305;29;20040;-92
2024/01/08 15:09:10;;;;;;;39.55;25.20;;;;;;;;;;4892081;29;20114;-92
2024/01/08 15:11:39;;;;;;;44.03;26.52;;;;;;;;;;4881984;29;20044;-91
2024/01/08 15:14:11;;;;;;;45.70;31.73;;;;;;;;;;4883145;29;20033;-94
2024/01/08 15:16:40;;;;;;;41.80;30.27;;;;;;;;;;4882635;29;20028;-91
2024/01/08 15:19:18;;;;;;;39.88;31.30;;;;;;;;;;4882227;29;20036;-90
2024/01/08 15:21:52;;;;;;;37.35;25.52;;;;;;;;;;4871875;29;20033;-91
2024/01/08 15:24:22;;;;;;;38.17;23.50;;;;;;;;;;4878266;29;20132;-93
2024/01/08 15:26:57;;;;;;;41.50;25.98;;;;;;;;;;4882306;29;20147;-94
2024/01/08 15:29:29;;;;;;;48.10;32.38;;;;;;;;;;4882096;29;20036;-90
2024/01/08 15:31:55;;;;;;;47.03;26.25;;;;;;;;;;4883281;29;20450;-94
2024/01/08 16:11:50;;;;;;;59.72;54.22;;;;;;;;;;5407581;23;20057;-93
2024/01/08 16:17:33;;;;;;;62.65;56.40;;;;;;;;;;4900641;23;20494;-90
2024/01/08 16:20:15;;;;;;;45.20;32.08;;;;;;;;;;4867184;29;20036;-92
2024/01/08 16:42:32;;;;;;;68.93;62.35;;;;;;;;;;4812946;29;20045;-92
2024/01/08 16:44:58;;;;;;;51.42;45.97;;;;;;;;;;4811133;29;20111;-91
2024/01/08 16:50:43;;;;;;;59.92;54.00;;;;;;;;;;4966403;23;20044;-93
2024/01/08 16:53:27;;;;;;;48.03;42.45;;;;;;;;;;4867067;29;20037;-90
2024/01/08 16:55:54;;;;;;;46.25;31.75;;;;;;;;;;4882208;29;20040;-90
2024/01/08 17:18:00;;;;;;;59.05;50.58;;;;;;;;;;4881372;29;20045;-92
2024/01/08 17:20:26;;;;;;;47.17;33.13;;;;;;;;;;4869239;29;20034;-91
2024/01/08 17:22:56;;;;;;;54.63;44.38;;;;;;;;;;4884092;29;20032;-91
2024/01/08 17:25:22;;;;;;;42.53;29.45;;;;;;;;;;4884148;29;20033;-92
2024/01/08 17:27:52;;;;;;;52.28;37.08;;;;;;;;;;4884722;29;20040;-91
2024/01/08 17:30:18;;;;;;;45.65;34.58;;;;;;;;;;4885089;29;20029;-92
2024/01/08 17:32:44;;;;;;;40.65;30.88;;;;;;;;;;4884707;29;20075;-91
2024/01/08 17:35:16;;;;;;;47.75;33.13;;;;;;;;;;4876104;29;20029;-92
2024/01/08 17:37:42;;;;;;;48.90;36.03;;;;;;;;;;4868605;29;20043;-92
2024/01/08 17:40:09;;;;;;;41.90;32.72;;;;;;;;;;4883909;29;20107;-92
2024/01/08 17:42:36;;;;;;;46.50;31.88;;;;;;;;;;4868023;29;20124;-92
2024/01/08 17:45:03;;;;;;;42.80;29.83;;;;;;;;;;4870925;29;20534;-93
2024/01/08 17:47:39;;;;;;;43.58;32.35;;;;;;;;;;4872992;29;20060;-93
2024/01/08 17:50:06;;;;;;;47.72;40.22;;;;;;;;;;4885812;29;20024;-93
2024/01/08 17:52:32;;;;;;;51.97;30.25;;;;;;;;;;4882881;29;20032;-92
2024/01/08 17:54:59;;;;;;;47.45;40.63;;;;;;;;;;4884131;29;20031;-91
2024/01/08 17:57:25;;;;;;;52.45;44.13;;;;;;;;;;4883899;29;20044;-93
2024/01/08 17:59:52;;;;;;;55.10;49.58;;;;;;;;;;4883864;29;20068;-94
2024/01/08 18:02:18;;;;;;;48.20;42.53;;;;;;;;;;4884124;29;20032;-92
2024/01/08 18:04:45;;;;;;;45.80;37.90;;;;;;;;;;4883890;29;20063;-93
2024/01/08 18:07:12;;;;;;;61.75;55.85;;;;;;;;;;4880561;29;20049;-94
2024/01/08 18:09:38;;;;;;;50.72;36.30;;;;;;;;;;4864766;29;20124;-95
2024/01/08 18:12:13;;;;;;;51.45;43.97;;;;;;;;;;4880962;29;20070;-92
2024/01/08 18:14:43;;;;;;;62.00;54.67;;;;;;;;;;4865122;29;20037;-94
2024/01/08 18:17:10;;;;;;;72.30;65.55;;;;;;;;;;4865232;29;20078;-93
2024/01/08 18:19:36;;;;;;;71.13;64.10;;;;;;;;;;4878103;29;20067;-94
2024/01/08 18:22:03;;;;;;;64.55;58.13;;;;;;;;;;4884627;29;20028;-93
2024/01/08 18:24:29;;;;;;;56.88;50.75;;;;;;;;;;4866783;29;20036;-94
2024/01/08 18:26:58;;;;;;;50.63;43.53;;;;;;;;;;4866611;29;20040;-94
2024/01/08 18:31:57;;;;;;;56.70;50.53;;;;;;;;;;4901045;29;20037;-95
2024/01/08 18:34:30;;;;;;;47.35;38.00;;;;;;;;;;4865985;29;20033;-94
2024/01/08 18:37:00;;;;;;;49.85;40.53;;;;;;;;;;5046327;23;20076;-92
2024/01/08 18:54:41;;;;;;;117.15;107.65;;;;;;;;;;5515314;23;20030;-95
2024/01/08 19:02:12;;;;;;;73.60;66.78;;;;;;;;;;4879058;29;20038;-94
2024/01/08 19:04:38;;;;;;;52.50;45.65;;;;;;;;;;4865022;29;20040;-94
2024/01/08 19:07:05;;;;;;;64.45;57.75;;;;;;;;;;4864333;29;20037;-95
2024/01/08 19:09:37;;;;;;;45.00;36.83;;;;;;;;;;4864706;29;20035;-92
2024/01/08 19:12:05;;;;;;;53.33;43.75;;;;;;;;;;4863841;29;20057;-93
2024/01/08 19:14:34;;;;;;;50.00;44.50;;;;;;;;;;4863935;29;20088;-93
2024/01/08 19:17:01;;;;;;;51.40;45.38;;;;;;;;;;4869660;29;20106;-94